Jump to content


DELTA AIRLINES FLIGHT DL729 FLOWN ON 01-22-2018 BY CAPTAIN DEREK ROGY

Pilot StatsCaptain Derek Rogy (LDP86) • 1,528.3 total hours • 819 total flights [View Logbook]
FLIGHT DETAILS
StatusReceived and approved on 2018-01-22 at 13:01:02
Origin AirportHartsfield - Jackson Atlanta I (KATL) • Atlanta, Georgia, United States (1,026 feet MSL)
Filed Flight PlanKATL AJFEB J14 ATL J45 CRG J113 DEARY KMLB
Destination AirportMelbourne Intl (KMLB) • Melbourne, Florida, United States (33 feet MSL)
Alternate AirportNone Filed
AirlineDelta Airlines
AircraftBoeing 737-800 | Winglets (73H / B737-800)
FS Aircraft UsedBoeing 737-832NGX Delta Air Lines Winglets
Cruising AltitudeFL320
Distance Flown386 nautical miles
Passengers Onboard51 passengers (31.48% full)
DEPARTURE DETAILS
Time Out15:04:04
Taxi Data148,054 lbs total with 46,020 lbs of fuel onboard
Takeoff Data15:23:03 (19 minutes after leaving gate/ramp) • 149,446 lbs total • 9° pitch at 155 knots
Departure METARKATL 221552Z 13006KT 6SM BR BKN007 BKN010 OVC040 12/11 A3011 RMK AO2 SLP195 T01220106
ARRIVAL DETAILS
Landing Data16:30:16 • 142,483 lbs total • 4° pitch doing 131 knots at a rate of -136.87 feet/minute with 11,452 lbs of fuel onboard
Time In16:36:58 (7 minutes after landing)
Ramp Weight142,101 lbs total
Total Fuel Used34,568 lbs
Total Block Time01:32:25 (1.5 hours) while 26 minutes were spent on the ground
Arrival METARKMLB 221753Z 13012G19KT 10SM CLR 26/19 A3010 RMK AO2 SLP193 T02560189 10261 20200 58021
MISCELLANEOUS DETAILS
LiveDISPATCH Version4.8.3.1
FS Version
FSUIPC Version5.12
OS VersionWindows 7 32-bit
Screen Resolution1920 x 1200
Pilot's CommentsNo Comments Reported
FLIGHT MAP